sensor_id;sensor_type;location;lat;lon;timestamp;P1;durP1;ratioP1;P2;durP2;ratioP2
5754;SDS011;2902;42.130;24.732;2022-10-16T00:00:20;6.10;;;5.57;;
5754;SDS011;2902;42.130;24.732;2022-10-16T00:02:47;8.10;;;5.33;;
5754;SDS011;2902;42.130;24.732;2022-10-16T00:05:14;6.93;;;6.33;;
5754;SDS011;2902;42.130;24.732;2022-10-16T00:07:41;6.90;;;6.40;;
5754;SDS011;2902;42.130;24.732;2022-10-16T00:10:09;9.13;;;6.60;;
5754;SDS011;2902;42.130;24.732;2022-10-16T00:12:35;6.40;;;5.83;;
5754;SDS011;2902;42.130;24.732;2022-10-16T00:15:02;6.00;;;5.60;;
5754;SDS011;2902;42.130;24.732;2022-10-16T00:17:30;5.70;;;5.30;;
5754;SDS011;2902;42.130;24.732;2022-10-16T00:19:57;6.80;;;5.47;;
5754;SDS011;2902;42.130;24.732;2022-10-16T00:22:23;6.67;;;6.07;;
5754;SDS011;2902;42.130;24.732;2022-10-16T00:24:50;6.23;;;5.73;;
5754;SDS011;2902;42.130;24.732;2022-10-16T00:27:19;7.00;;;6.40;;
5754;SDS011;2902;42.130;24.732;2022-10-16T00:29:49;7.10;;;6.40;;
5754;SDS011;2902;42.130;24.732;2022-10-16T00:32:15;8.40;;;6.07;;
5754;SDS011;2902;42.130;24.732;2022-10-16T00:34:42;7.47;;;5.67;;
5754;SDS011;2902;42.130;24.732;2022-10-16T00:37:09;6.87;;;5.80;;
5754;SDS011;2902;42.130;24.732;2022-10-16T00:39:36;6.27;;;5.67;;
5754;SDS011;2902;42.130;24.732;2022-10-16T00:42:03;5.97;;;5.53;;
5754;SDS011;2902;42.130;24.732;2022-10-16T00:44:45;6.97;;;6.20;;
5754;SDS011;2902;42.130;24.732;2022-10-16T00:47:19;6.80;;;6.10;;
5754;SDS011;2902;42.130;24.732;2022-10-16T00:49:49;6.83;;;6.33;;
5754;SDS011;2902;42.130;24.732;2022-10-16T00:52:18;7.30;;;6.60;;
5754;SDS011;2902;42.130;24.732;2022-10-16T00:54:46;7.93;;;6.53;;
5754;SDS011;2902;42.130;24.732;2022-10-16T00:57:13;6.90;;;6.47;;
5754;SDS011;2902;42.130;24.732;2022-10-16T00:59:40;8.50;;;6.67;;
5754;SDS011;2902;42.130;24.732;2022-10-16T01:02:11;6.23;;;5.73;;
5754;SDS011;2902;42.130;24.732;2022-10-16T01:04:40;7.13;;;6.53;;
5754;SDS011;2902;42.130;24.732;2022-10-16T01:07:11;6.67;;;6.20;;
5754;SDS011;2902;42.130;24.732;2022-10-16T01:09:44;7.00;;;6.30;;
5754;SDS011;2902;42.130;24.732;2022-10-16T01:12:20;10.53;;;6.77;;
5754;SDS011;2902;42.130;24.732;2022-10-16T01:14:53;9.63;;;6.37;;
5754;SDS011;2902;42.130;24.732;2022-10-16T01:17:25;6.90;;;6.20;;
5754;SDS011;2902;42.130;24.732;2022-10-16T01:20:02;7.60;;;6.93;;
5754;SDS011;2902;42.130;24.732;2022-10-16T01:22:37;6.73;;;6.13;;
5754;SDS011;2902;42.130;24.732;2022-10-16T01:25:11;6.90;;;6.40;;
5754;SDS011;2902;42.130;24.732;2022-10-16T01:27:46;9.30;;;6.83;;
5754;SDS011;2902;42.130;24.732;2022-10-16T01:30:16;9.27;;;6.90;;
5754;SDS011;2902;42.130;24.732;2022-10-16T01:32:48;7.40;;;6.70;;
5754;SDS011;2902;42.130;24.732;2022-10-16T01:35:20;9.10;;;6.87;;
5754;SDS011;2902;42.130;24.732;2022-10-16T01:37:52;9.93;;;6.93;;
5754;SDS011;2902;42.130;24.732;2022-10-16T01:40:25;9.33;;;7.47;;
5754;SDS011;2902;42.130;24.732;2022-10-16T01:42:55;7.93;;;7.03;;
5754;SDS011;2902;42.130;24.732;2022-10-16T01:45:26;7.80;;;7.30;;
5754;SDS011;2902;42.130;24.732;2022-10-16T01:47:56;7.73;;;7.13;;
5754;SDS011;2902;42.130;24.732;2022-10-16T01:50:24;9.27;;;7.87;;
5754;SDS011;2902;42.130;24.732;2022-10-16T01:52:54;8.17;;;7.27;;
5754;SDS011;2902;42.130;24.732;2022-10-16T01:55:24;10.77;;;7.03;;
5754;SDS011;2902;42.130;24.732;2022-10-16T01:57:57;7.83;;;7.00;;
5754;SDS011;2902;42.130;24.732;2022-10-16T02:00:27;8.70;;;7.87;;
5754;SDS011;2902;42.130;24.732;2022-10-16T02:02:56;10.43;;;7.03;;
5754;SDS011;2902;42.130;24.732;2022-10-16T02:05:25;9.13;;;6.90;;
5754;SDS011;2902;42.130;24.732;2022-10-16T02:07:55;9.63;;;7.50;;
5754;SDS011;2902;42.130;24.732;2022-10-16T02:10:22;9.63;;;7.07;;
5754;SDS011;2902;42.130;24.732;2022-10-16T02:12:52;7.53;;;6.97;;
5754;SDS011;2902;42.130;24.732;2022-10-16T02:15:24;9.10;;;7.20;;
5754;SDS011;2902;42.130;24.732;2022-10-16T02:17:51;8.47;;;7.70;;
5754;SDS011;2902;42.130;24.732;2022-10-16T02:20:18;8.10;;;7.30;;
5754;SDS011;2902;42.130;24.732;2022-10-16T02:22:48;9.10;;;8.40;;
5754;SDS011;2902;42.130;24.732;2022-10-16T02:25:17;10.23;;;7.50;;
5754;SDS011;2902;42.130;24.732;2022-10-16T02:27:51;8.87;;;8.00;;
5754;SDS011;2902;42.130;24.732;2022-10-16T02:30:24;10.50;;;8.37;;
5754;SDS011;2902;42.130;24.732;2022-10-16T02:32:53;9.37;;;8.00;;
5754;SDS011;2902;42.130;24.732;2022-10-16T02:35:24;9.33;;;8.50;;
5754;SDS011;2902;42.130;24.732;2022-10-16T02:37:52;12.50;;;8.97;;
5754;SDS011;2902;42.130;24.732;2022-10-16T02:40:20;10.53;;;9.53;;
5754;SDS011;2902;42.130;24.732;2022-10-16T02:42:49;11.20;;;9.80;;
5754;SDS011;2902;42.130;24.732;2022-10-16T02:45:18;17.40;;;11.20;;
5754;SDS011;2902;42.130;24.732;2022-10-16T02:47:46;12.03;;;10.83;;
5754;SDS011;2902;42.130;24.732;2022-10-16T02:50:13;12.50;;;11.13;;
5754;SDS011;2902;42.130;24.732;2022-10-16T02:52:40;15.70;;;11.00;;
5754;SDS011;2902;42.130;24.732;2022-10-16T02:55:07;12.80;;;11.50;;
5754;SDS011;2902;42.130;24.732;2022-10-16T02:57:34;15.30;;;10.13;;
5754;SDS011;2902;42.130;24.732;2022-10-16T03:00:02;14.53;;;10.43;;
5754;SDS011;2902;42.130;24.732;2022-10-16T03:02:29;11.27;;;10.20;;
5754;SDS011;2902;42.130;24.732;2022-10-16T03:04:57;11.37;;;10.17;;
5754;SDS011;2902;42.130;24.732;2022-10-16T03:07:24;12.50;;;9.77;;
5754;SDS011;2902;42.130;24.732;2022-10-16T03:09:51;11.63;;;10.13;;
5754;SDS011;2902;42.130;24.732;2022-10-16T03:12:17;11.70;;;10.60;;
5754;SDS011;2902;42.130;24.732;2022-10-16T03:14:44;16.07;;;10.60;;
5754;SDS011;2902;42.130;24.732;2022-10-16T03:17:11;11.90;;;10.60;;
5754;SDS011;2902;42.130;24.732;2022-10-16T03:19:38;12.90;;;11.27;;
5754;SDS011;2902;42.130;24.732;2022-10-16T03:22:06;14.97;;;10.87;;
5754;SDS011;2902;42.130;24.732;2022-10-16T03:24:33;13.03;;;10.10;;
5754;SDS011;2902;42.130;24.732;2022-10-16T03:27:00;12.80;;;10.70;;
5754;SDS011;2902;42.130;24.732;2022-10-16T03:29:27;12.30;;;10.63;;
5754;SDS011;2902;42.130;24.732;2022-10-16T03:31:54;14.40;;;10.57;;
5754;SDS011;2902;42.130;24.732;2022-10-16T03:34:21;10.87;;;9.77;;
5754;SDS011;2902;42.130;24.732;2022-10-16T03:36:48;11.43;;;9.67;;
5754;SDS011;2902;42.130;24.732;2022-10-16T03:39:16;16.30;;;10.00;;
5754;SDS011;2902;42.130;24.732;2022-10-16T03:41:43;12.20;;;10.20;;
5754;SDS011;2902;42.130;24.732;2022-10-16T03:44:11;17.30;;;10.33;;
5754;SDS011;2902;42.130;24.732;2022-10-16T03:46:38;11.50;;;10.33;;
5754;SDS011;2902;42.130;24.732;2022-10-16T03:49:04;10.77;;;9.53;;
5754;SDS011;2902;42.130;24.732;2022-10-16T03:51:31;10.23;;;9.00;;
5754;SDS011;2902;42.130;24.732;2022-10-16T03:53:58;12.23;;;10.00;;
5754;SDS011;2902;42.130;24.732;2022-10-16T03:56:26;12.30;;;9.43;;
5754;SDS011;2902;42.130;24.732;2022-10-16T03:58:53;10.23;;;9.37;;
5754;SDS011;2902;42.130;24.732;2022-10-16T04:01:19;15.80;;;9.07;;
5754;SDS011;2902;42.130;24.732;2022-10-16T04:03:46;16.20;;;9.33;;
5754;SDS011;2902;42.130;24.732;2022-10-16T04:06:13;12.37;;;9.57;;
5754;SDS011;2902;42.130;24.732;2022-10-16T04:08:41;12.40;;;9.60;;
5754;SDS011;2902;42.130;24.732;2022-10-16T04:11:08;11.07;;;9.17;;
5754;SDS011;2902;42.130;24.732;2022-10-16T04:13:37;11.17;;;8.67;;
5754;SDS011;2902;42.130;24.732;2022-10-16T04:16:03;9.40;;;8.43;;
5754;SDS011;2902;42.130;24.732;2022-10-16T04:18:30;8.83;;;8.07;;
5754;SDS011;2902;42.130;24.732;2022-10-16T04:21:01;9.33;;;8.43;;
5754;SDS011;2902;42.130;24.732;2022-10-16T04:23:28;15.13;;;9.90;;
5754;SDS011;2902;42.130;24.732;2022-10-16T04:25:55;11.63;;;8.63;;
5754;SDS011;2902;42.130;24.732;2022-10-16T04:28:22;11.40;;;8.40;;
5754;SDS011;2902;42.130;24.732;2022-10-16T04:30:50;9.40;;;8.53;;
5754;SDS011;2902;42.130;24.732;2022-10-16T04:33:17;13.97;;;9.03;;
5754;SDS011;2902;42.130;24.732;2022-10-16T04:35:43;9.43;;;8.50;;
5754;SDS011;2902;42.130;24.732;2022-10-16T04:38:10;10.70;;;9.53;;
5754;SDS011;2902;42.130;24.732;2022-10-16T04:40:37;10.53;;;9.50;;
5754;SDS011;2902;42.130;24.732;2022-10-16T04:43:04;9.47;;;8.50;;
5754;SDS011;2902;42.130;24.732;2022-10-16T04:45:32;8.67;;;7.83;;
5754;SDS011;2902;42.130;24.732;2022-10-16T04:48:00;9.77;;;8.80;;
5754;SDS011;2902;42.130;24.732;2022-10-16T04:50:27;13.53;;;8.53;;
5754;SDS011;2902;42.130;24.732;2022-10-16T04:52:53;11.07;;;8.40;;
5754;SDS011;2902;42.130;24.732;2022-10-16T04:55:20;11.47;;;8.00;;
5754;SDS011;2902;42.130;24.732;2022-10-16T04:57:47;8.57;;;7.97;;
5754;SDS011;2902;42.130;24.732;2022-10-16T05:00:14;12.97;;;9.20;;
5754;SDS011;2902;42.130;24.732;2022-10-16T05:02:41;14.30;;;8.70;;
5754;SDS011;2902;42.130;24.732;2022-10-16T05:05:09;9.03;;;8.20;;
5754;SDS011;2902;42.130;24.732;2022-10-16T05:07:36;12.70;;;8.60;;
5754;SDS011;2902;42.130;24.732;2022-10-16T05:10:03;10.57;;;8.63;;
5754;SDS011;2902;42.130;24.732;2022-10-16T05:12:31;9.00;;;8.10;;
5754;SDS011;2902;42.130;24.732;2022-10-16T05:14:58;8.20;;;7.63;;
5754;SDS011;2902;42.130;24.732;2022-10-16T05:17:25;8.97;;;8.13;;
5754;SDS011;2902;42.130;24.732;2022-10-16T05:19:51;8.57;;;7.97;;
5754;SDS011;2902;42.130;24.732;2022-10-16T05:22:20;9.77;;;8.07;;
5754;SDS011;2902;42.130;24.732;2022-10-16T05:24:47;7.70;;;7.13;;
5754;SDS011;2902;42.130;24.732;2022-10-16T05:27:13;7.83;;;7.03;;
5754;SDS011;2902;42.130;24.732;2022-10-16T05:29:44;11.07;;;7.50;;
5754;SDS011;2902;42.130;24.732;2022-10-16T05:32:11;9.33;;;8.43;;
5754;SDS011;2902;42.130;24.732;2022-10-16T05:34:38;8.13;;;7.33;;
5754;SDS011;2902;42.130;24.732;2022-10-16T05:37:05;11.83;;;8.23;;
5754;SDS011;2902;42.130;24.732;2022-10-16T05:39:33;9.70;;;7.67;;
5754;SDS011;2902;42.130;24.732;2022-10-16T05:42:01;9.23;;;8.20;;
5754;SDS011;2902;42.130;24.732;2022-10-16T05:44:28;12.47;;;7.90;;
5754;SDS011;2902;42.130;24.732;2022-10-16T05:46:55;10.40;;;8.20;;
5754;SDS011;2902;42.130;24.732;2022-10-16T05:49:22;8.50;;;7.70;;
5754;SDS011;2902;42.130;24.732;2022-10-16T05:51:48;13.23;;;8.70;;
5754;SDS011;2902;42.130;24.732;2022-10-16T05:54:15;8.70;;;7.80;;
5754;SDS011;2902;42.130;24.732;2022-10-16T05:56:43;10.27;;;7.67;;
5754;SDS011;2902;42.130;24.732;2022-10-16T05:59:10;7.40;;;6.70;;
5754;SDS011;2902;42.130;24.732;2022-10-16T06:01:36;7.90;;;5.80;;
5754;SDS011;2902;42.130;24.732;2022-10-16T06:04:03;7.60;;;5.70;;
5754;SDS011;2902;42.130;24.732;2022-10-16T06:06:30;7.30;;;6.60;;
5754;SDS011;2902;42.130;24.732;2022-10-16T06:08:57;9.50;;;5.80;;
5754;SDS011;2902;42.130;24.732;2022-10-16T06:11:25;7.37;;;6.13;;
5754;SDS011;2902;42.130;24.732;2022-10-16T06:13:55;8.17;;;6.37;;
5754;SDS011;2902;42.130;24.732;2022-10-16T06:16:23;12.47;;;6.53;;
5754;SDS011;2902;42.130;24.732;2022-10-16T06:18:51;7.33;;;6.50;;
5754;SDS011;2902;42.130;24.732;2022-10-16T06:21:19;7.33;;;6.73;;
5754;SDS011;2902;42.130;24.732;2022-10-16T06:23:47;8.33;;;5.80;;
5754;SDS011;2902;42.130;24.732;2022-10-16T06:26:15;13.27;;;6.53;;
5754;SDS011;2902;42.130;24.732;2022-10-16T06:28:43;5.50;;;5.10;;
5754;SDS011;2902;42.130;24.732;2022-10-16T06:31:11;7.67;;;5.50;;
5754;SDS011;2902;42.130;24.732;2022-10-16T06:33:39;6.17;;;5.67;;
5754;SDS011;2902;42.130;24.732;2022-10-16T06:36:06;6.13;;;5.37;;
5754;SDS011;2902;42.130;24.732;2022-10-16T06:38:34;9.40;;;6.20;;
5754;SDS011;2902;42.130;24.732;2022-10-16T06:41:02;6.17;;;5.60;;
5754;SDS011;2902;42.130;24.732;2022-10-16T06:43:29;6.73;;;6.20;;
5754;SDS011;2902;42.130;24.732;2022-10-16T06:45:58;10.07;;;5.53;;
5754;SDS011;2902;42.130;24.732;2022-10-16T06:48:27;8.03;;;5.67;;
5754;SDS011;2902;42.130;24.732;2022-10-16T06:50:55;10.77;;;5.47;;
5754;SDS011;2902;42.130;24.732;2022-10-16T06:53:23;6.00;;;5.43;;
5754;SDS011;2902;42.130;24.732;2022-10-16T06:55:50;5.60;;;5.20;;
5754;SDS011;2902;42.130;24.732;2022-10-16T06:58:17;5.43;;;5.03;;
5754;SDS011;2902;42.130;24.732;2022-10-16T07:00:43;6.37;;;5.73;;
5754;SDS011;2902;42.130;24.732;2022-10-16T07:03:10;7.43;;;5.47;;
5754;SDS011;2902;42.130;24.732;2022-10-16T07:05:38;5.80;;;5.20;;
5754;SDS011;2902;42.130;24.732;2022-10-16T07:08:05;5.97;;;5.13;;
5754;SDS011;2902;42.130;24.732;2022-10-16T07:10:32;6.23;;;5.20;;
5754;SDS011;2902;42.130;24.732;2022-10-16T07:13:00;5.43;;;5.03;;
5754;SDS011;2902;42.130;24.732;2022-10-16T07:15:27;12.30;;;5.67;;
5754;SDS011;2902;42.130;24.732;2022-10-16T07:17:54;5.10;;;4.80;;
5754;SDS011;2902;42.130;24.732;2022-10-16T07:20:20;7.63;;;4.80;;
5754;SDS011;2902;42.130;24.732;2022-10-16T07:22:48;7.97;;;5.87;;
5754;SDS011;2902;42.130;24.732;2022-10-16T07:25:15;7.60;;;5.73;;
5754;SDS011;2902;42.130;24.732;2022-10-16T07:27:42;8.63;;;5.17;;
5754;SDS011;2902;42.130;24.732;2022-10-16T07:30:09;7.90;;;5.87;;
5754;SDS011;2902;42.130;24.732;2022-10-16T07:32:36;7.27;;;5.77;;
5754;SDS011;2902;42.130;24.732;2022-10-16T07:35:03;5.80;;;5.40;;
5754;SDS011;2902;42.130;24.732;2022-10-16T07:37:31;8.47;;;4.93;;
5754;SDS011;2902;42.130;24.732;2022-10-16T07:39:59;6.07;;;5.33;;
5754;SDS011;2902;42.130;24.732;2022-10-16T07:42:26;6.13;;;5.63;;
5754;SDS011;2902;42.130;24.732;2022-10-16T07:44:53;8.50;;;5.03;;
5754;SDS011;2902;42.130;24.732;2022-10-16T07:47:20;6.10;;;5.50;;
5754;SDS011;2902;42.130;24.732;2022-10-16T07:49:47;6.80;;;4.87;;
5754;SDS011;2902;42.130;24.732;2022-10-16T07:52:13;6.67;;;5.63;;
5754;SDS011;2902;42.130;24.732;2022-10-16T07:54:40;6.40;;;5.73;;
5754;SDS011;2902;42.130;24.732;2022-10-16T07:57:08;6.20;;;5.00;;
5754;SDS011;2902;42.130;24.732;2022-10-16T07:59:35;11.97;;;5.47;;
5754;SDS011;2902;42.130;24.732;2022-10-16T08:02:02;6.10;;;5.30;;
5754;SDS011;2902;42.130;24.732;2022-10-16T08:04:28;6.20;;;5.13;;
5754;SDS011;2902;42.130;24.732;2022-10-16T08:06:55;5.27;;;4.80;;
5754;SDS011;2902;42.130;24.732;2022-10-16T08:09:22;6.20;;;5.67;;
5754;SDS011;2902;42.130;24.732;2022-10-16T08:11:48;5.00;;;4.70;;
5754;SDS011;2902;42.130;24.732;2022-10-16T08:14:18;5.23;;;4.67;;
5754;SDS011;2902;42.130;24.732;2022-10-16T08:16:44;5.57;;;4.67;;
5754;SDS011;2902;42.130;24.732;2022-10-16T08:19:11;5.40;;;4.87;;
5754;SDS011;2902;42.130;24.732;2022-10-16T08:21:38;5.83;;;5.13;;
5754;SDS011;2902;42.130;24.732;2022-10-16T08:24:04;5.13;;;4.73;;
5754;SDS011;2902;42.130;24.732;2022-10-16T08:26:31;5.23;;;4.90;;
5754;SDS011;2902;42.130;24.732;2022-10-16T08:28:58;5.97;;;5.40;;
5754;SDS011;2902;42.130;24.732;2022-10-16T08:31:26;11.60;;;5.67;;
5754;SDS011;2902;42.130;24.732;2022-10-16T08:33:53;6.97;;;5.50;;
5754;SDS011;2902;42.130;24.732;2022-10-16T08:36:19;11.37;;;9.20;;
5754;SDS011;2902;42.130;24.732;2022-10-16T08:38:47;6.07;;;5.17;;
5754;SDS011;2902;42.130;24.732;2022-10-16T08:41:18;7.77;;;5.03;;
5754;SDS011;2902;42.130;24.732;2022-10-16T08:43:57;6.07;;;4.23;;
5754;SDS011;2902;42.130;24.732;2022-10-16T08:46:41;5.50;;;5.00;;
5754;SDS011;2902;42.130;24.732;2022-10-16T08:49:17;5.80;;;5.30;;
5754;SDS011;2902;42.130;24.732;2022-10-16T08:51:44;9.00;;;4.47;;
5754;SDS011;2902;42.130;24.732;2022-10-16T08:54:18;5.60;;;4.40;;
5754;SDS011;2902;42.130;24.732;2022-10-16T08:56:54;4.67;;;4.27;;
5754;SDS011;2902;42.130;24.732;2022-10-16T08:59:21;5.60;;;4.53;;
5754;SDS011;2902;42.130;24.732;2022-10-16T09:01:50;4.37;;;3.90;;
5754;SDS011;2902;42.130;24.732;2022-10-16T09:07:17;4.83;;;4.43;;
5754;SDS011;2902;42.130;24.732;2022-10-16T09:09:54;5.80;;;4.13;;
5754;SDS011;2902;42.130;24.732;2022-10-16T09:12:33;4.37;;;4.03;;
5754;SDS011;2902;42.130;24.732;2022-10-16T09:15:11;5.57;;;4.23;;
5754;SDS011;2902;42.130;24.732;2022-10-16T09:17:50;4.40;;;3.87;;
5754;SDS011;2902;42.130;24.732;2022-10-16T09:20:26;6.13;;;3.97;;
5754;SDS011;2902;42.130;24.732;2022-10-16T09:23:14;4.70;;;3.90;;
5754;SDS011;2902;42.130;24.732;2022-10-16T09:25:43;5.13;;;4.13;;
5754;SDS011;2902;42.130;24.732;2022-10-16T09:28:13;7.27;;;4.47;;
5754;SDS011;2902;42.130;24.732;2022-10-16T09:30:41;4.10;;;3.80;;
5754;SDS011;2902;42.130;24.732;2022-10-16T09:33:11;4.17;;;3.80;;
5754;SDS011;2902;42.130;24.732;2022-10-16T09:35:39;5.93;;;3.97;;
5754;SDS011;2902;42.130;24.732;2022-10-16T09:38:08;4.43;;;4.07;;
5754;SDS011;2902;42.130;24.732;2022-10-16T09:40:35;4.77;;;3.70;;
5754;SDS011;2902;42.130;24.732;2022-10-16T09:43:10;3.70;;;3.50;;
5754;SDS011;2902;42.130;24.732;2022-10-16T09:45:53;5.07;;;4.10;;
5754;SDS011;2902;42.130;24.732;2022-10-16T09:48:22;4.70;;;3.80;;
5754;SDS011;2902;42.130;24.732;2022-10-16T09:50:55;4.57;;;3.90;;
5754;SDS011;2902;42.130;24.732;2022-10-16T09:53:23;3.77;;;3.47;;
5754;SDS011;2902;42.130;24.732;2022-10-16T09:55:50;3.90;;;3.60;;
5754;SDS011;2902;42.130;24.732;2022-10-16T09:58:17;3.87;;;3.43;;
5754;SDS011;2902;42.130;24.732;2022-10-16T10:00:48;4.17;;;3.87;;
5754;SDS011;2902;42.130;24.732;2022-10-16T10:03:23;4.30;;;4.00;;
5754;SDS011;2902;42.130;24.732;2022-10-16T10:06:01;5.60;;;3.90;;
5754;SDS011;2902;42.130;24.732;2022-10-16T10:08:33;4.77;;;4.27;;
5754;SDS011;2902;42.130;24.732;2022-10-16T10:11:00;5.17;;;4.30;;
5754;SDS011;2902;42.130;24.732;2022-10-16T10:13:27;6.50;;;4.00;;
5754;SDS011;2902;42.130;24.732;2022-10-16T10:15:54;4.30;;;3.90;;
5754;SDS011;2902;42.130;24.732;2022-10-16T10:18:21;4.13;;;3.63;;
5754;SDS011;2902;42.130;24.732;2022-10-16T10:20:57;4.67;;;3.80;;
5754;SDS011;2902;42.130;24.732;2022-10-16T10:23:26;4.10;;;3.80;;
5754;SDS011;2902;42.130;24.732;2022-10-16T10:25:56;5.77;;;4.10;;
5754;SDS011;2902;42.130;24.732;2022-10-16T10:31:20;4.53;;;4.17;;
5754;SDS011;2902;42.130;24.732;2022-10-16T10:33:54;5.20;;;3.50;;
5754;SDS011;2902;42.130;24.732;2022-10-16T10:36:32;4.03;;;3.60;;
5754;SDS011;2902;42.130;24.732;2022-10-16T10:39:03;4.17;;;3.63;;
5754;SDS011;2902;42.130;24.732;2022-10-16T10:41:40;3.93;;;3.67;;
5754;SDS011;2902;42.130;24.732;2022-10-16T10:44:30;3.97;;;3.67;;
5754;SDS011;2902;42.130;24.732;2022-10-16T10:47:12;5.40;;;3.53;;
5754;SDS011;2902;42.130;24.732;2022-10-16T10:49:51;7.20;;;3.60;;
5754;SDS011;2902;42.130;24.732;2022-10-16T10:52:28;3.70;;;3.40;;
5754;SDS011;2902;42.130;24.732;2022-10-16T10:55:08;3.73;;;3.50;;
5754;SDS011;2902;42.130;24.732;2022-10-16T10:57:43;5.93;;;3.87;;
5754;SDS011;2902;42.130;24.732;2022-10-16T11:00:23;3.80;;;3.50;;
5754;SDS011;2902;42.130;24.732;2022-10-16T11:02:58;4.23;;;4.03;;
5754;SDS011;2902;42.130;24.732;2022-10-16T11:05:43;4.03;;;3.63;;
5754;SDS011;2902;42.130;24.732;2022-10-16T11:08:14;3.87;;;3.57;;
5754;SDS011;2902;42.130;24.732;2022-10-16T11:10:47;4.27;;;3.97;;
5754;SDS011;2902;42.130;24.732;2022-10-16T11:13:26;15.50;;;5.20;;
5754;SDS011;2902;42.130;24.732;2022-10-16T11:15:59;4.83;;;4.53;;
5754;SDS011;2902;42.130;24.732;2022-10-16T11:18:30;4.07;;;3.73;;
5754;SDS011;2902;42.130;24.732;2022-10-16T11:21:06;4.93;;;3.70;;
5754;SDS011;2902;42.130;24.732;2022-10-16T11:23:38;4.33;;;4.03;;
5754;SDS011;2902;42.130;24.732;2022-10-16T11:26:10;5.63;;;3.47;;
5754;SDS011;2902;42.130;24.732;2022-10-16T11:28:45;10.90;;;3.90;;
5754;SDS011;2902;42.130;24.732;2022-10-16T11:31:14;5.43;;;3.70;;
5754;SDS011;2902;42.130;24.732;2022-10-16T11:33:45;4.90;;;3.90;;
5754;SDS011;2902;42.130;24.732;2022-10-16T11:36:19;4.53;;;3.33;;
5754;SDS011;2902;42.130;24.732;2022-10-16T11:38:50;3.73;;;3.43;;
5754;SDS011;2902;42.130;24.732;2022-10-16T11:41:23;4.20;;;3.93;;
5754;SDS011;2902;42.130;24.732;2022-10-16T11:43:58;2.97;;;2.87;;
5754;SDS011;2902;42.130;24.732;2022-10-16T11:46:36;3.73;;;3.43;;
5754;SDS011;2902;42.130;24.732;2022-10-16T11:49:08;4.57;;;3.50;;
5754;SDS011;2902;42.130;24.732;2022-10-16T11:51:42;3.60;;;3.30;;
5754;SDS011;2902;42.130;24.732;2022-10-16T11:54:17;5.93;;;3.63;;
5754;SDS011;2902;42.130;24.732;2022-10-16T11:56:48;4.07;;;3.77;;
5754;SDS011;2902;42.130;24.732;2022-10-16T11:59:22;6.10;;;3.53;;
5754;SDS011;2902;42.130;24.732;2022-10-16T12:01:57;3.73;;;3.43;;
5754;SDS011;2902;42.130;24.732;2022-10-16T12:04:31;3.63;;;3.43;;
5754;SDS011;2902;42.130;24.732;2022-10-16T12:07:11;4.73;;;3.40;;
5754;SDS011;2902;42.130;24.732;2022-10-16T12:09:41;3.80;;;3.50;;
5754;SDS011;2902;42.130;24.732;2022-10-16T12:12:23;3.70;;;3.50;;
5754;SDS011;2902;42.130;24.732;2022-10-16T12:14:59;6.00;;;3.47;;
5754;SDS011;2902;42.130;24.732;2022-10-16T12:17:27;4.00;;;3.63;;
5754;SDS011;2902;42.130;24.732;2022-10-16T12:20:17;3.53;;;3.30;;
5754;SDS011;2902;42.130;24.732;2022-10-16T12:22:49;3.20;;;3.00;;
5754;SDS011;2902;42.130;24.732;2022-10-16T12:25:20;3.87;;;3.53;;
5754;SDS011;2902;42.130;24.732;2022-10-16T12:27:53;3.10;;;2.90;;
5754;SDS011;2902;42.130;24.732;2022-10-16T12:30:26;7.43;;;3.00;;
5754;SDS011;2902;42.130;24.732;2022-10-16T12:32:55;4.20;;;3.90;;
5754;SDS011;2902;42.130;24.732;2022-10-16T12:35:24;3.60;;;3.40;;
5754;SDS011;2902;42.130;24.732;2022-10-16T12:38:03;3.73;;;3.43;;
5754;SDS011;2902;42.130;24.732;2022-10-16T12:40:40;3.73;;;3.43;;
5754;SDS011;2902;42.130;24.732;2022-10-16T12:43:13;4.57;;;3.37;;
5754;SDS011;2902;42.130;24.732;2022-10-16T12:46:03;4.07;;;3.77;;
5754;SDS011;2902;42.130;24.732;2022-10-16T12:48:30;4.13;;;3.30;;
5754;SDS011;2902;42.130;24.732;2022-10-16T12:50:57;5.13;;;4.23;;
5754;SDS011;2902;42.130;24.732;2022-10-16T12:53:37;3.20;;;3.10;;
5754;SDS011;2902;42.130;24.732;2022-10-16T12:56:12;4.13;;;3.83;;
5754;SDS011;2902;42.130;24.732;2022-10-16T13:01:38;4.47;;;3.37;;
5754;SDS011;2902;42.130;24.732;2022-10-16T13:04:29;4.53;;;4.23;;
5754;SDS011;2902;42.130;24.732;2022-10-16T13:07:15;9.37;;;3.00;;
5754;SDS011;2902;42.130;24.732;2022-10-16T13:09:59;4.10;;;3.80;;
5754;SDS011;2902;42.130;24.732;2022-10-16T13:12:44;5.00;;;4.20;;
5754;SDS011;2902;42.130;24.732;2022-10-16T13:15:26;4.73;;;4.07;;
5754;SDS011;2902;42.130;24.732;2022-10-16T13:18:10;4.37;;;4.17;;
5754;SDS011;2902;42.130;24.732;2022-10-16T13:20:49;4.07;;;3.83;;
5754;SDS011;2902;42.130;24.732;2022-10-16T13:23:28;5.43;;;3.80;;
5754;SDS011;2902;42.130;24.732;2022-10-16T13:26:04;6.50;;;3.50;;
5754;SDS011;2902;42.130;24.732;2022-10-16T13:28:38;4.20;;;3.80;;
5754;SDS011;2902;42.130;24.732;2022-10-16T13:31:05;4.17;;;3.97;;
5754;SDS011;2902;42.130;24.732;2022-10-16T13:33:41;4.50;;;3.83;;
5754;SDS011;2902;42.130;24.732;2022-10-16T13:36:18;4.00;;;3.70;;
5754;SDS011;2902;42.130;24.732;2022-10-16T13:38:46;4.80;;;3.90;;
5754;SDS011;2902;42.130;24.732;2022-10-16T13:41:16;5.70;;;3.63;;
5754;SDS011;2902;42.130;24.732;2022-10-16T13:43:45;4.10;;;3.80;;
5754;SDS011;2902;42.130;24.732;2022-10-16T13:46:16;9.97;;;4.93;;
5754;SDS011;2902;42.130;24.732;2022-10-16T13:48:44;4.10;;;3.80;;
5754;SDS011;2902;42.130;24.732;2022-10-16T13:51:22;5.60;;;3.73;;
5754;SDS011;2902;42.130;24.732;2022-10-16T13:53:49;6.80;;;4.20;;
5754;SDS011;2902;42.130;24.732;2022-10-16T13:56:18;8.17;;;3.90;;
5754;SDS011;2902;42.130;24.732;2022-10-16T13:58:46;5.30;;;4.17;;
5754;SDS011;2902;42.130;24.732;2022-10-16T14:01:24;4.20;;;3.90;;
5754;SDS011;2902;42.130;24.732;2022-10-16T14:03:52;4.03;;;3.73;;
5754;SDS011;2902;42.130;24.732;2022-10-16T14:06:25;4.20;;;3.80;;
5754;SDS011;2902;42.130;24.732;2022-10-16T14:08:54;4.90;;;4.37;;
5754;SDS011;2902;42.130;24.732;2022-10-16T14:11:26;4.80;;;4.40;;
5754;SDS011;2902;42.130;24.732;2022-10-16T14:13:53;5.53;;;4.00;;
5754;SDS011;2902;42.130;24.732;2022-10-16T14:16:21;4.80;;;4.37;;
5754;SDS011;2902;42.130;24.732;2022-10-16T14:18:59;6.67;;;4.40;;
5754;SDS011;2902;42.130;24.732;2022-10-16T14:21:27;5.40;;;4.50;;
5754;SDS011;2902;42.130;24.732;2022-10-16T14:23:54;6.93;;;5.47;;
5754;SDS011;2902;42.130;24.732;2022-10-16T14:26:22;7.23;;;4.73;;
5754;SDS011;2902;42.130;24.732;2022-10-16T14:29:03;5.87;;;3.77;;
5754;SDS011;2902;42.130;24.732;2022-10-16T14:31:37;4.37;;;4.03;;
5754;SDS011;2902;42.130;24.732;2022-10-16T14:34:05;4.93;;;4.53;;
5754;SDS011;2902;42.130;24.732;2022-10-16T14:36:50;4.20;;;3.90;;
5754;SDS011;2902;42.130;24.732;2022-10-16T14:39:17;5.67;;;4.50;;
5754;SDS011;2902;42.130;24.732;2022-10-16T14:41:47;4.83;;;4.40;;
5754;SDS011;2902;42.130;24.732;2022-10-16T14:44:16;8.93;;;4.83;;
5754;SDS011;2902;42.130;24.732;2022-10-16T14:46:45;4.40;;;4.10;;
5754;SDS011;2902;42.130;24.732;2022-10-16T14:49:14;6.93;;;4.47;;
5754;SDS011;2902;42.130;24.732;2022-10-16T14:51:43;4.50;;;4.20;;
5754;SDS011;2902;42.130;24.732;2022-10-16T14:54:11;4.77;;;4.23;;
5754;SDS011;2902;42.130;24.732;2022-10-16T14:56:42;6.50;;;4.67;;
5754;SDS011;2902;42.130;24.732;2022-10-16T14:59:13;35.97;;;26.93;;
5754;SDS011;2902;42.130;24.732;2022-10-16T15:01:44;7.50;;;6.90;;
5754;SDS011;2902;42.130;24.732;2022-10-16T15:04:11;6.20;;;4.40;;
5754;SDS011;2902;42.130;24.732;2022-10-16T15:06:39;5.83;;;5.33;;
5754;SDS011;2902;42.130;24.732;2022-10-16T15:09:06;5.23;;;4.83;;
5754;SDS011;2902;42.130;24.732;2022-10-16T15:11:32;6.33;;;4.27;;
5754;SDS011;2902;42.130;24.732;2022-10-16T15:13:59;5.30;;;4.50;;
5754;SDS011;2902;42.130;24.732;2022-10-16T15:16:26;5.50;;;4.20;;
5754;SDS011;2902;42.130;24.732;2022-10-16T15:18:54;5.10;;;4.60;;
5754;SDS011;2902;42.130;24.732;2022-10-16T15:21:22;7.57;;;4.50;;
5754;SDS011;2902;42.130;24.732;2022-10-16T15:23:51;5.87;;;5.20;;